createdAt,value
2023-04-09T00:01:14.968Z,103223.41
2023-04-09T00:03:42.655Z,103231.94
2023-04-09T00:06:12.385Z,103224.25
2023-04-09T00:08:40.093Z,103220.81
2023-04-09T00:11:09.143Z,103227.69
2023-04-09T00:13:39.666Z,103224.31
2023-04-09T00:16:07.876Z,103219.16
2023-04-09T00:18:35.756Z,103219.16
2023-04-09T00:21:03.551Z,103221.81
2023-04-09T00:23:31.384Z,103208.97
2023-04-09T00:25:59.040Z,103209.00
2023-04-09T00:28:28.101Z,103212.44
2023-04-09T00:30:55.707Z,103201.25
2023-04-09T00:33:23.398Z,103205.59
2023-04-09T00:35:51.267Z,103206.44
2023-04-09T00:38:19.024Z,103206.44
2023-04-09T00:40:49.910Z,103204.66
2023-04-09T00:43:17.983Z,103204.66
2023-04-09T00:45:47.138Z,103207.22
2023-04-09T00:48:15.165Z,103208.97
2023-04-09T00:50:43.356Z,103204.66
2023-04-09T00:53:11.549Z,103204.63
2023-04-09T00:55:41.015Z,103208.06
2023-04-09T00:58:08.885Z,103211.47
2023-04-09T01:00:36.496Z,103209.72
2023-04-09T01:03:06.586Z,103209.69
2023-04-09T01:05:38.781Z,103208.78
2023-04-09T01:08:12.260Z,103203.63
2023-04-09T01:10:42.476Z,103201.03
2023-04-09T01:13:12.934Z,103195.84
2023-04-09T01:15:43.979Z,103204.41
2023-04-09T01:18:15.968Z,103197.41
2023-04-09T01:20:45.063Z,103210.34
2023-04-09T01:23:17.462Z,103209.53
2023-04-09T01:25:48.413Z,103199.25
2023-04-09T01:28:18.392Z,103205.22
2023-04-09T01:30:49.201Z,103202.56
2023-04-09T01:33:18.108Z,103197.41
2023-04-09T01:35:47.036Z,103200.88
2023-04-09T01:38:15.615Z,103205.09
2023-04-09T01:40:43.868Z,103201.66
2023-04-09T01:43:12.441Z,103202.47
2023-04-09T01:45:42.007Z,103208.47
2023-04-09T01:48:10.302Z,103204.16
2023-04-09T01:50:38.558Z,103205.88
2023-04-09T01:53:06.261Z,103199.88
2023-04-09T01:55:33.969Z,103212.72
2023-04-09T01:58:01.620Z,103211.03
2023-04-09T02:00:36.317Z,103220.44
2023-04-09T02:03:08.594Z,103210.09
2023-04-09T02:05:38.705Z,103217.75
2023-04-09T02:08:07.816Z,103210.91
2023-04-09T02:10:36.644Z,103212.66
2023-04-09T02:13:06.270Z,103216.97
2023-04-09T02:15:35.607Z,103210.88
2023-04-09T02:18:03.417Z,103213.41
2023-04-09T02:20:32.424Z,103212.56
2023-04-09T02:23:00.426Z,103221.13
2023-04-09T02:25:28.284Z,103219.41
2023-04-09T02:27:55.939Z,103211.69
2023-04-09T02:30:23.703Z,103215.09
2023-04-09T02:32:51.424Z,103216.88
2023-04-09T02:35:19.274Z,103221.16
2023-04-09T02:37:48.252Z,103217.72
2023-04-09T02:40:15.974Z,103217.72
2023-04-09T02:42:43.587Z,103219.44
2023-04-09T02:45:11.738Z,103215.09
2023-04-09T02:47:39.375Z,103222.00
2023-04-09T02:50:07.732Z,103217.69
2023-04-09T02:52:35.592Z,103217.75
2023-04-09T02:55:04.918Z,103210.91
2023-04-09T02:57:33.776Z,103219.50
2023-04-09T03:00:01.516Z,103210.09
2023-04-09T03:02:29.419Z,103211.84
2023-04-09T03:04:57.205Z,103218.69
2023-04-09T03:07:24.816Z,103216.13
2023-04-09T03:09:52.433Z,103216.13
2023-04-09T03:12:21.564Z,103211.06
2023-04-09T03:14:49.204Z,103217.09
2023-04-09T03:17:16.902Z,103211.16
2023-04-09T03:19:44.614Z,103206.00
2023-04-09T03:22:12.244Z,103213.75
2023-04-09T03:24:39.965Z,103211.22
2023-04-09T03:27:07.643Z,103205.25
2023-04-09T03:29:36.656Z,103201.03
2023-04-09T03:32:04.371Z,103209.63
2023-04-09T03:34:32.031Z,103198.50
2023-04-09T03:36:59.788Z,103207.97
2023-04-09T03:39:30.797Z,103210.56
2023-04-09T03:41:59.241Z,103207.19
2023-04-09T03:44:26.928Z,103216.69
2023-04-09T03:46:56.035Z,103214.16
2023-04-09T03:49:23.832Z,103214.16
2023-04-09T03:51:51.500Z,103208.16
2023-04-09T03:54:19.198Z,103220.16
2023-04-09T03:56:46.955Z,103216.78
2023-04-09T03:59:14.589Z,103215.91
2023-04-09T04:01:42.249Z,103216.81
2023-04-09T04:04:11.964Z,103217.69
2023-04-09T04:06:39.662Z,103208.25
2023-04-09T04:09:07.344Z,103213.44
2023-04-09T04:11:34.989Z,103210.03
2023-04-09T04:14:02.649Z,103218.66
2023-04-09T04:16:30.319Z,103213.53
2023-04-09T04:18:58.026Z,103210.06
2023-04-09T04:21:27.235Z,103213.53
2023-04-09T04:23:54.948Z,103216.16
2023-04-09T04:26:22.661Z,103225.63
2023-04-09T04:28:50.546Z,103223.06
2023-04-09T04:31:18.504Z,103228.25
2023-04-09T04:33:48.878Z,103229.09
2023-04-09T04:36:16.620Z,103230.81
2023-04-09T04:38:45.665Z,103229.94
2023-04-09T04:41:13.343Z,103229.13
2023-04-09T04:43:42.284Z,103226.56
2023-04-09T04:46:09.973Z,103225.69
2023-04-09T04:48:37.731Z,103226.56
2023-04-09T04:51:05.575Z,103233.44
2023-04-09T04:53:33.261Z,103226.59
2023-04-09T04:56:02.313Z,103225.72
2023-04-09T04:58:30.853Z,103221.47
2023-04-09T05:00:58.498Z,103228.34
2023-04-09T05:03:27.613Z,103227.47
2023-04-09T05:05:55.408Z,103230.91
2023-04-09T05:08:23.161Z,103221.47
2023-04-09T05:10:51.362Z,103224.06
2023-04-09T05:13:20.426Z,103223.19
2023-04-09T05:15:48.149Z,103221.50
2023-04-09T05:18:15.856Z,103223.22
2023-04-09T05:20:43.462Z,103224.97
2023-04-09T05:23:12.500Z,103225.88
2023-04-09T05:25:40.280Z,103222.44
2023-04-09T05:28:08.184Z,103229.34
2023-04-09T05:30:37.287Z,103221.66
2023-04-09T05:33:05.110Z,103219.97
2023-04-09T05:35:32.861Z,103224.28
2023-04-09T05:38:00.597Z,103225.19
2023-04-09T05:40:28.237Z,103228.66
2023-04-09T05:42:56.111Z,103221.78
2023-04-09T05:45:23.831Z,103221.81
2023-04-09T05:47:52.891Z,103227.00
2023-04-09T05:50:20.562Z,103221.91
2023-04-09T05:52:48.205Z,103221.97
2023-04-09T05:55:16.017Z,103227.16
2023-04-09T05:57:45.409Z,103228.09
2023-04-09T06:00:13.591Z,103222.94
2023-04-09T06:02:41.307Z,103222.97
2023-04-09T06:05:11.265Z,103216.19
2023-04-09T06:07:38.929Z,103215.38
2023-04-09T06:10:07.247Z,103216.09
2023-04-09T06:12:35.317Z,103214.28
2023-04-09T06:15:03.668Z,103215.00
2023-04-09T06:17:31.357Z,103212.34
2023-04-09T06:19:59.078Z,103213.03
2023-04-09T06:22:28.122Z,103213.09
2023-04-09T06:24:55.828Z,103220.81
2023-04-09T06:27:23.473Z,103221.66
2023-04-09T06:29:51.151Z,103220.78
2023-04-09T06:32:18.867Z,103215.75
2023-04-09T06:34:46.746Z,103220.88
2023-04-09T06:37:14.450Z,103225.25
2023-04-09T06:39:47.713Z,103225.25
2023-04-09T06:42:21.825Z,103221.63
2023-04-09T06:44:49.464Z,103225.13
2023-04-09T06:47:17.190Z,103221.66
2023-04-09T06:49:44.874Z,103221.75
2023-04-09T06:52:12.570Z,103222.56
2023-04-09T06:54:40.267Z,103220.91
2023-04-09T06:57:09.585Z,103224.34
2023-04-09T06:59:37.204Z,103224.25
2023-04-09T07:02:04.951Z,103225.06
2023-04-09T07:04:32.929Z,103228.47
2023-04-09T07:07:01.133Z,103229.34
2023-04-09T07:09:28.906Z,103225.81
2023-04-09T07:11:56.521Z,103225.72
2023-04-09T07:14:25.550Z,103236.16
2023-04-09T07:16:53.283Z,103234.44
2023-04-09T07:19:21.093Z,103223.16
2023-04-09T07:21:48.799Z,103230.81
2023-04-09T07:24:16.432Z,103233.28
2023-04-09T07:26:46.749Z,103235.94
2023-04-09T07:29:14.632Z,103232.41
2023-04-09T07:31:44.894Z,103228.78
2023-04-09T07:34:12.727Z,103233.97
2023-04-09T07:36:41.117Z,103228.75
2023-04-09T07:39:08.828Z,103226.97
2023-04-09T07:41:36.742Z,103226.91
2023-04-09T07:44:06.275Z,103222.47
2023-04-09T07:46:34.232Z,103229.38
2023-04-09T07:49:03.363Z,103225.13
2023-04-09T07:51:31.335Z,103227.59
2023-04-09T07:53:59.083Z,103228.31
2023-04-09T07:56:26.799Z,103224.81
2023-04-09T07:58:54.514Z,103222.16
2023-04-09T08:01:24.724Z,103227.31
2023-04-09T08:03:52.704Z,103231.66
2023-04-09T08:06:21.827Z,103224.63
2023-04-09T08:08:49.543Z,103228.03
2023-04-09T08:11:18.491Z,103227.16
2023-04-09T08:13:46.243Z,103222.69
2023-04-09T08:16:13.997Z,103222.75
2023-04-09T08:18:41.676Z,103228.56
2023-04-09T08:21:09.333Z,103230.81
2023-04-09T08:23:38.741Z,103229.84
2023-04-09T08:26:06.483Z,103226.19
2023-04-09T08:28:34.142Z,103221.97
2023-04-09T08:31:02.129Z,103219.41
2023-04-09T08:33:30.330Z,103221.00
2023-04-09T08:35:57.971Z,103211.28
2023-04-09T08:38:26.018Z,103209.59
2023-04-09T08:40:55.126Z,103211.25
2023-04-09T08:43:26.990Z,103213.88
2023-04-09T08:46:03.332Z,103209.47
2023-04-09T08:48:31.183Z,103216.31
2023-04-09T08:50:58.988Z,103214.28
2023-04-09T08:53:27.476Z,103213.91
2023-04-09T08:55:56.615Z,103209.63
2023-04-09T08:58:24.411Z,103208.91
2023-04-09T09:00:52.142Z,103201.91
2023-04-09T09:03:19.941Z,103207.69
2023-04-09T09:05:47.691Z,103206.00
2023-04-09T09:08:15.723Z,103205.09
2023-04-09T09:10:44.364Z,103204.31
2023-04-09T09:13:21.276Z,103205.03
2023-04-09T09:15:50.628Z,103200.50
2023-04-09T09:18:18.708Z,103203.16
2023-04-09T09:20:46.339Z,103193.63
2023-04-09T09:23:13.996Z,103192.72
2023-04-09T09:25:42.266Z,103196.09
2023-04-09T09:28:10.492Z,103189.75
2023-04-09T09:30:40.871Z,103189.56
2023-04-09T09:33:09.165Z,103181.56
2023-04-09T09:35:50.232Z,103183.13
2023-04-09T09:38:18.308Z,103181.44
2023-04-09T09:40:46.044Z,103183.53
2023-04-09T09:43:14.730Z,103175.44
2023-04-09T09:45:47.941Z,103178.91
2023-04-09T09:48:16.389Z,103179.50
2023-04-09T09:50:45.324Z,103179.38
2023-04-09T09:53:13.249Z,103178.75
2023-04-09T09:55:41.682Z,103172.53
2023-04-09T09:58:13.584Z,103175.78
2023-04-09T10:00:41.520Z,103174.53
2023-04-09T10:03:13.436Z,103163.94
2023-04-09T10:05:41.687Z,103166.91
2023-04-09T10:08:09.333Z,103172.09
2023-04-09T10:10:37.771Z,103175.69
2023-04-09T10:13:07.655Z,103173.81
2023-04-09T10:15:36.068Z,103171.91
2023-04-09T10:18:03.896Z,103170.47
2023-04-09T10:20:35.428Z,103171.22
2023-04-09T10:23:04.475Z,103167.31
2023-04-09T10:25:32.376Z,103174.91
2023-04-09T10:28:03.371Z,103165.13
2023-04-09T10:30:34.556Z,103168.38
2023-04-09T10:33:12.319Z,103161.38
2023-04-09T10:35:42.305Z,103156.44
2023-04-09T10:38:10.738Z,103153.06
2023-04-09T10:40:41.817Z,103151.97
2023-04-09T10:43:10.002Z,103154.28
2023-04-09T10:45:41.081Z,103153.38
2023-04-09T10:48:12.423Z,103154.94
2023-04-09T10:50:43.517Z,103159.03
2023-04-09T10:53:22.484Z,103152.09
2023-04-09T10:55:50.768Z,103155.69
2023-04-09T10:58:18.487Z,103152.31
2023-04-09T11:00:48.960Z,103151.16
2023-04-09T11:03:24.311Z,103150.50
2023-04-09T11:05:56.767Z,103145.97
2023-04-09T11:08:24.522Z,103141.63
2023-04-09T11:10:54.469Z,103156.66
2023-04-09T11:13:22.179Z,103142.50
2023-04-09T11:15:49.843Z,103149.09
2023-04-09T11:18:23.972Z,103139.63
2023-04-09T11:20:55.124Z,103148.25
2023-04-09T11:23:24.765Z,103144.81
2023-04-09T11:25:53.123Z,103148.25
2023-04-09T11:28:21.419Z,103142.16
2023-04-09T11:30:51.432Z,103148.25
2023-04-09T11:33:20.249Z,103144.41
2023-04-09T11:35:48.574Z,103145.47
2023-04-09T11:38:16.343Z,103144.28
2023-04-09T11:40:48.450Z,103140.69
2023-04-09T11:43:17.055Z,103143.28
2023-04-09T11:45:47.106Z,103135.47
2023-04-09T11:48:15.245Z,103137.47
2023-04-09T11:50:43.093Z,103130.09
2023-04-09T11:53:17.169Z,103136.94
2023-04-09T11:55:47.989Z,103128.34
2023-04-09T11:58:15.747Z,103128.84
2023-04-09T12:00:43.388Z,103132.34
2023-04-09T12:03:11.967Z,103127.16
2023-04-09T12:05:41.667Z,103127.03
2023-04-09T12:08:10.901Z,103128.47
2023-04-09T12:10:40.114Z,103121.69
2023-04-09T12:13:10.984Z,103131.94
2023-04-09T12:15:41.049Z,103137.69
2023-04-09T12:18:09.581Z,103130.00
2023-04-09T12:20:39.449Z,103128.28
2023-04-09T12:23:08.435Z,103124.16
2023-04-09T12:25:36.990Z,103123.44
2023-04-09T12:28:05.022Z,103122.66
2023-04-09T12:30:34.371Z,103121.59
2023-04-09T12:33:02.345Z,103122.63
2023-04-09T12:35:30.712Z,103112.78
2023-04-09T12:37:59.409Z,103121.97
2023-04-09T12:40:27.683Z,103119.94
2023-04-09T12:42:55.436Z,103113.72
2023-04-09T12:45:23.123Z,103109.78
2023-04-09T12:47:52.939Z,103114.94
2023-04-09T12:50:20.831Z,103113.72
2023-04-09T12:52:48.585Z,103118.50
2023-04-09T12:55:16.366Z,103116.75
2023-04-09T12:57:44.874Z,103106.91
2023-04-09T13:00:13.139Z,103098.56
2023-04-09T13:05:10.454Z,103105.38
2023-04-09T13:07:38.112Z,103111.44
2023-04-09T13:10:06.176Z,103105.41
2023-04-09T13:12:33.845Z,103106.91
2023-04-09T13:15:01.565Z,103104.50
2023-04-09T13:17:29.293Z,103108.16
2023-04-09T13:19:56.892Z,103113.41
2023-04-09T13:22:26.018Z,103100.72
2023-04-09T13:24:53.752Z,103101.72
2023-04-09T13:27:21.402Z,103103.38
2023-04-09T13:29:49.057Z,103097.09
2023-04-09T13:32:18.325Z,103099.97
2023-04-09T13:34:46.107Z,103100.03
2023-04-09T13:37:13.863Z,103099.94
2023-04-09T13:39:43.001Z,103099.44
2023-04-09T13:42:14.185Z,103097.03
2023-04-09T13:44:44.969Z,103099.66
2023-04-09T13:47:13.153Z,103101.53
2023-04-09T13:49:40.882Z,103093.66
2023-04-09T13:52:08.504Z,103099.00
2023-04-09T13:54:36.324Z,103092.69
2023-04-09T13:57:05.432Z,103087.66
2023-04-09T13:59:33.131Z,103092.16
2023-04-09T14:02:00.965Z,103091.28
2023-04-09T14:04:28.776Z,103080.72
2023-04-09T14:06:57.471Z,103084.13
2023-04-09T14:09:25.169Z,103082.25
2023-04-09T14:11:54.773Z,103075.38
2023-04-09T14:14:23.873Z,103084.31
2023-04-09T14:16:51.572Z,103081.84
2023-04-09T14:19:19.245Z,103079.41
2023-04-09T14:21:46.969Z,103085.50
2023-04-09T14:24:14.620Z,103081.22
2023-04-09T14:26:42.257Z,103077.06
2023-04-09T14:29:09.907Z,103083.22
2023-04-09T14:31:38.979Z,103073.78
2023-04-09T14:34:06.766Z,103073.50
2023-04-09T14:36:34.511Z,103072.56
2023-04-09T14:39:02.157Z,103068.97
2023-04-09T14:41:29.911Z,103072.84
2023-04-09T14:43:57.562Z,103071.06
2023-04-09T14:46:28.470Z,103065.88
2023-04-09T14:48:57.449Z,103066.59
2023-04-09T14:51:25.154Z,103066.56
2023-04-09T14:53:52.931Z,103062.97
2023-04-09T14:56:20.630Z,103072.50
2023-04-09T14:58:48.344Z,103069.69
2023-04-09T15:01:16.040Z,103070.50
2023-04-09T15:03:44.914Z,103065.38
2023-04-09T15:06:14.203Z,103076.72
2023-04-09T15:08:41.911Z,103076.41
2023-04-09T15:11:09.845Z,103063.22
2023-04-09T15:13:37.515Z,103067.69
2023-04-09T15:16:05.466Z,103067.06
2023-04-09T15:18:34.484Z,103069.75
2023-04-09T15:21:02.080Z,103074.06
2023-04-09T15:23:35.503Z,103070.59
2023-04-09T15:26:03.197Z,103075.88
2023-04-09T15:28:30.997Z,103073.63
2023-04-09T15:30:58.640Z,103069.41
2023-04-09T15:33:27.286Z,103076.47
2023-04-09T15:35:55.117Z,103072.22
2023-04-09T15:38:25.141Z,103071.34
2023-04-09T15:40:54.797Z,103071.44
2023-04-09T15:43:23.302Z,103073.47
2023-04-09T15:45:51.027Z,103073.63
2023-04-09T15:48:19.267Z,103079.00
2023-04-09T15:50:47.403Z,103073.06
2023-04-09T15:53:16.030Z,103070.59
2023-04-09T15:55:43.703Z,103081.13
2023-04-09T15:58:12.807Z,103078.66
2023-04-09T16:00:40.556Z,103077.84
2023-04-09T16:03:08.326Z,103085.69
2023-04-09T16:05:36.200Z,103080.41
2023-04-09T16:08:03.956Z,103076.28
2023-04-09T16:10:31.581Z,103081.59
2023-04-09T16:12:59.247Z,103082.63
2023-04-09T16:15:28.357Z,103081.81
2023-04-09T16:17:56.716Z,103083.69
2023-04-09T16:20:24.573Z,103082.03
2023-04-09T16:22:52.275Z,103079.47
2023-04-09T16:25:19.977Z,103080.41
2023-04-09T16:27:47.625Z,103082.25
2023-04-09T16:30:15.390Z,103081.44
2023-04-09T16:32:44.516Z,103080.63
2023-04-09T16:35:12.226Z,103073.75
2023-04-09T16:37:39.937Z,103080.84
2023-04-09T16:40:08.277Z,103082.63
2023-04-09T16:42:36.764Z,103080.13
2023-04-09T16:45:04.683Z,103082.84
2023-04-09T16:47:32.703Z,103084.84
2023-04-09T16:50:03.047Z,103085.78
2023-04-09T16:52:30.714Z,103084.06
2023-04-09T16:54:58.964Z,103076.38
2023-04-09T16:57:26.588Z,103078.22
2023-04-09T16:59:54.231Z,103082.78
2023-04-09T17:02:23.935Z,103080.44
2023-04-09T17:04:51.748Z,103081.38
2023-04-09T17:07:21.894Z,103089.38
2023-04-09T17:09:49.530Z,103087.75
2023-04-09T17:12:21.253Z,103080.09
2023-04-09T17:14:48.971Z,103081.16
2023-04-09T17:17:17.128Z,103086.50
2023-04-09T17:19:44.965Z,103088.34
2023-04-09T17:22:13.915Z,103089.41
2023-04-09T17:24:42.987Z,103092.13
2023-04-09T17:27:11.036Z,103091.44
2023-04-09T17:29:38.831Z,103096.00
2023-04-09T17:32:06.687Z,103096.16
2023-04-09T17:34:34.364Z,103097.16
2023-04-09T17:37:02.072Z,103099.03
2023-04-09T17:39:29.885Z,103100.09
2023-04-09T17:42:00.591Z,103099.31
2023-04-09T17:44:28.336Z,103100.31
2023-04-09T17:46:56.228Z,103104.00
2023-04-09T17:49:23.887Z,103101.59
2023-04-09T17:51:51.722Z,103102.66
2023-04-09T17:54:19.458Z,103112.47
2023-04-09T17:56:47.073Z,103108.38
2023-04-09T17:59:16.062Z,103110.25
2023-04-09T18:01:43.818Z,103106.13
2023-04-09T18:04:12.034Z,103114.09
2023-04-09T18:06:39.815Z,103116.88
2023-04-09T18:09:07.634Z,103116.16
2023-04-09T18:11:35.361Z,103118.88
2023-04-09T18:14:07.867Z,103123.34
2023-04-09T18:16:38.248Z,103129.50
2023-04-09T18:19:06.015Z,103116.69
2023-04-09T18:21:36.371Z,103114.34
2023-04-09T18:24:04.246Z,103124.94
2023-04-09T18:26:33.826Z,103122.34
2023-04-09T18:29:01.821Z,103127.59
2023-04-09T18:31:29.622Z,103122.63
2023-04-09T18:33:58.696Z,103120.84
2023-04-09T18:36:28.298Z,103125.31
2023-04-09T18:38:57.890Z,103127.16
2023-04-09T18:41:26.035Z,103119.38
2023-04-09T18:43:54.151Z,103124.66
2023-04-09T18:46:22.896Z,103128.28
2023-04-09T18:48:50.686Z,103125.78
2023-04-09T18:51:20.872Z,103125.88
2023-04-09T18:53:52.918Z,103130.22
2023-04-09T18:56:21.159Z,103122.50
2023-04-09T18:58:48.924Z,103131.28
2023-04-09T19:01:17.581Z,103125.38
2023-04-09T19:03:45.946Z,103129.69
2023-04-09T19:06:14.662Z,103128.03
2023-04-09T19:08:43.841Z,103134.97
2023-04-09T19:11:12.606Z,103135.84
2023-04-09T19:13:40.703Z,103133.28
2023-04-09T19:16:09.730Z,103136.88
2023-04-09T19:18:37.742Z,103136.09
2023-04-09T19:21:06.500Z,103139.63
2023-04-09T19:23:35.161Z,103139.72
2023-04-09T19:26:05.417Z,103133.75
2023-04-09T19:28:33.200Z,103143.31
2023-04-09T19:31:03.252Z,103149.34
2023-04-09T19:33:31.815Z,103143.38
2023-04-09T19:35:59.710Z,103144.28
2023-04-09T19:38:27.450Z,103147.78
2023-04-09T19:40:55.138Z,103151.31
2023-04-09T19:43:24.209Z,103147.84
2023-04-09T19:45:51.903Z,103145.28
2023-04-09T19:48:19.608Z,103147.06
2023-04-09T19:50:48.420Z,103149.69
2023-04-09T19:53:16.459Z,103141.94
2023-04-09T19:55:44.744Z,103144.53
2023-04-09T19:58:12.440Z,103142.00
2023-04-09T20:00:41.692Z,103151.50
2023-04-09T20:03:09.717Z,103143.75
2023-04-09T20:05:37.545Z,103152.41
2023-04-09T20:08:05.605Z,103155.91
2023-04-09T20:10:33.322Z,103158.50
2023-04-09T20:13:01.665Z,103157.63
2023-04-09T20:15:29.467Z,103161.94
2023-04-09T20:17:58.519Z,103162.81
2023-04-09T20:20:26.267Z,103163.69
2023-04-09T20:22:56.373Z,103171.47
2023-04-09T20:25:24.576Z,103162.84
2023-04-09T20:27:53.755Z,103165.41
2023-04-09T20:30:21.626Z,103168.00
2023-04-09T20:32:49.732Z,103163.72
2023-04-09T20:35:18.990Z,103165.41
2023-04-09T20:37:48.414Z,103164.56
2023-04-09T20:40:16.417Z,103161.13
2023-04-09T20:42:44.759Z,103164.56
2023-04-09T20:45:12.586Z,103168.84
2023-04-09T20:47:41.053Z,103160.25
2023-04-09T20:50:09.118Z,103168.00
2023-04-09T20:52:38.424Z,103166.25
2023-04-09T20:55:06.592Z,103169.69
2023-04-09T20:57:34.432Z,103173.16
2023-04-09T21:00:02.147Z,103177.44
2023-04-09T21:02:30.187Z,103179.13
2023-04-09T21:05:03.338Z,103183.47
2023-04-09T21:07:36.394Z,103180.88
2023-04-09T21:10:05.772Z,103184.31
2023-04-09T21:12:34.493Z,103181.72
2023-04-09T21:15:02.235Z,103186.88
2023-04-09T21:17:31.732Z,103182.53
2023-04-09T21:19:59.520Z,103176.50
2023-04-09T21:22:27.709Z,103178.22
2023-04-09T21:24:58.592Z,103175.63
2023-04-09T21:27:27.604Z,103168.75
2023-04-09T21:29:55.330Z,103175.59
2023-04-09T21:32:22.987Z,103165.28
2023-04-09T21:34:50.691Z,103169.53
2023-04-09T21:37:18.449Z,103165.25
2023-04-09T21:39:48.157Z,103166.09
2023-04-09T21:42:15.807Z,103165.22
2023-04-09T21:44:44.839Z,103165.19
2023-04-09T21:47:13.149Z,103162.59
2023-04-09T21:49:40.872Z,103155.75
2023-04-09T21:52:14.143Z,103156.63
2023-04-09T21:54:42.285Z,103152.28
2023-04-09T21:57:10.028Z,103154.84
2023-04-09T21:59:37.909Z,103153.13
2023-04-09T22:02:06.988Z,103153.97
2023-04-09T22:04:35.805Z,103154.81
2023-04-09T22:07:04.186Z,103155.63
2023-04-09T22:09:32.010Z,103160.75
2023-04-09T22:11:59.770Z,103156.44
2023-04-09T22:14:29.410Z,103162.41
2023-04-09T22:16:58.508Z,103157.22
2023-04-09T22:19:28.197Z,103158.06
2023-04-09T22:21:55.964Z,103158.91
2023-04-09T22:24:27.137Z,103156.31
2023-04-09T22:26:54.958Z,103155.44
2023-04-09T22:29:22.633Z,103146.88
2023-04-09T22:31:50.526Z,103144.31
2023-04-09T22:34:21.292Z,103147.72
2023-04-09T22:36:51.188Z,103147.75
2023-04-09T22:39:19.082Z,103147.72
2023-04-09T22:41:46.990Z,103146.00
2023-04-09T22:44:14.636Z,103143.41
2023-04-09T22:46:42.284Z,103148.53
2023-04-09T22:49:12.401Z,103139.09
2023-04-09T22:51:41.675Z,103152.78
2023-04-09T22:54:11.205Z,103151.91
2023-04-09T22:56:39.687Z,103145.88
2023-04-09T22:59:07.434Z,103141.56
2023-04-09T23:01:35.667Z,103150.09
2023-04-09T23:04:03.409Z,103153.53
2023-04-09T23:06:32.009Z,103154.38
2023-04-09T23:09:00.039Z,103156.03
2023-04-09T23:11:29.175Z,103154.28
2023-04-09T23:13:56.832Z,103151.69
2023-04-09T23:16:24.514Z,103160.28
2023-04-09T23:18:52.527Z,103157.69
2023-04-09T23:21:20.793Z,103160.22
2023-04-09T23:23:48.461Z,103157.63
2023-04-09T23:26:16.159Z,103160.22
2023-04-09T23:28:45.264Z,103164.50
2023-04-09T23:31:12.994Z,103171.34
2023-04-09T23:33:40.625Z,103175.59
2023-04-09T23:36:08.659Z,103166.13
2023-04-09T23:38:36.324Z,103164.41
2023-04-09T23:41:03.962Z,103164.38
2023-04-09T23:43:31.592Z,103157.50
2023-04-09T23:46:00.666Z,103154.03
2023-04-09T23:48:28.355Z,103156.56
2023-04-09T23:50:55.968Z,103156.56
2023-04-09T23:53:23.600Z,103160.00
2023-04-09T23:55:52.757Z,103158.22
2023-04-09T23:58:21.385Z,103152.25
